Time;durP1;ratioP1;P1;durP2;ratioP2;P2;SDS_P1;SDS_P2;PMS_P1;PMS_P2;Temp;Humidity;BMP_temperature;BMP_pressure;BME280_temperature;BME280_humidity;BME280_pressure;Samples;Min_cycle;Max_cycle;Signal;HPM_P1;HPM_P2
2021/12/16 00:01:41;;;;;;;8.93;4.30;;;;;;;18.67;47.01;102106.59;5098416;28;20902;-59
2021/12/16 00:08:57;;;;;;;9.93;3.40;;;;;;;18.77;46.97;102111.97;5112731;28;20519;-59
2021/12/16 00:33:32;;;;;;;6.20;3.43;;;;;;;18.65;48.43;102117.50;5091619;28;20845;-59
2021/12/16 00:35:58;;;;;;;5.80;3.20;;;;;;;18.65;48.69;102106.91;5112039;27;20502;-59
2021/12/16 00:38:24;;;;;;;7.57;4.00;;;;;;;18.63;48.32;102112.16;5125860;27;20470;-59
2021/12/16 00:40:49;;;;;;;7.40;3.60;;;;;;;18.60;48.69;102115.66;5107235;27;20209;-59
2021/12/16 00:43:25;;;;;;;5.40;3.03;;;;;;;18.62;48.59;102110.44;5094094;28;20220;-59
2021/12/16 00:48:25;;;;;;;9.97;3.67;;;;;;;18.62;48.67;102119.03;5095464;28;20424;-59
2021/12/16 00:56:08;;;;;;;6.43;3.27;;;;;;;18.62;48.83;102107.56;5090629;28;20510;-59
2021/12/16 00:58:43;;;;;;;5.47;3.10;;;;;;;18.63;49.03;102120.72;5093356;28;20489;-59
2021/12/16 01:03:49;;;;;;;5.27;2.90;;;;;;;18.59;49.23;102111.13;5051042;28;20536;-59
2021/12/16 01:33:54;;;;;;;7.50;2.80;;;;;;;18.61;49.87;102134.50;5056728;28;20437;-59
2021/12/16 01:36:37;;;;;;;7.50;3.17;;;;;;;18.61;49.68;102131.66;5049428;28;20422;-59
2021/12/16 01:39:45;;;;;;;5.30;3.07;;;;;;;18.59;49.57;102125.44;5081592;28;20911;-59
2021/12/16 01:47:41;;;;;;;5.20;2.93;;;;;;;18.64;49.67;102130.97;5066244;28;20321;-59
2021/12/16 01:50:13;;;;;;;5.13;2.53;;;;;;;18.55;49.85;102141.59;5057112;28;21165;-59
2021/12/16 01:55:32;;;;;;;6.37;2.87;;;;;;;18.59;49.89;102139.72;5057782;28;20816;-59
2021/12/16 01:58:12;;;;;;;5.33;2.57;;;;;;;18.53;49.94;102129.66;5069027;28;20459;-59
2021/12/16 02:01:11;;;;;;;4.43;2.50;;;;;;;18.56;50.16;102126.09;5066227;28;20480;-59
2021/12/16 02:03:46;;;;;;;5.50;2.47;;;;;;;18.60;50.01;102126.25;5095579;28;20453;-59
2021/12/16 02:07:02;;;;;;;4.33;2.30;;;;;;;18.56;50.48;102122.41;5093993;28;20423;-59
2021/12/16 02:09:42;;;;;;;6.07;2.67;;;;;;;18.53;50.24;102118.22;5092102;28;20509;-59
2021/12/16 02:36:45;;;;;;;6.53;2.73;;;;;;;18.50;50.80;102112.28;5112256;28;20468;-59
2021/12/16 02:39:26;;;;;;;6.60;2.30;;;;;;;18.51;50.29;102128.31;5120062;27;20523;-59
2021/12/16 02:42:15;;;;;;;3.60;2.20;;;;;;;18.50;50.63;102123.72;5099679;28;20460;-59
2021/12/16 02:50:09;;;;;;;4.13;2.70;;;;;;;18.51;50.73;102119.72;5107136;28;20435;-59
2021/12/16 02:52:34;;;;;;;4.60;2.37;;;;;;;18.49;50.46;102122.06;5086793;28;20432;-59
2021/12/16 02:55:00;;;;;;;4.50;2.30;;;;;;;18.47;50.47;102119.53;5107553;28;20234;-59
2021/12/16 02:57:25;;;;;;;4.37;2.13;;;;;;;18.50;50.46;102116.00;5113274;28;20166;-59
2021/12/16 02:59:52;;;;;;;6.93;2.67;;;;;;;18.51;50.32;102111.97;5113931;28;20180;-59
2021/12/16 03:02:18;;;;;;;4.83;2.33;;;;;;;18.50;50.67;102113.16;5110236;28;20650;-59
2021/12/16 03:04:46;;;;;;;3.30;2.17;;;;;;;18.52;50.41;102127.13;5099894;28;20432;-59
2021/12/16 03:07:14;;;;;;;3.03;1.80;;;;;;;18.50;50.62;102124.59;5074861;28;20416;-58
2021/12/16 03:12:43;;;;;;;5.60;2.20;;;;;;;18.49;50.87;102116.34;5105408;28;20427;-59
2021/12/16 03:15:40;;;;;;;5.10;1.90;;;;;;;18.49;50.90;102127.78;5092391;28;20911;-59
2021/12/16 03:18:30;;;;;;;4.40;2.47;;;;;;;18.53;50.49;102121.06;5099904;28;20990;-59
2021/12/16 03:21:08;;;;;;;4.23;2.47;;;;;;;18.49;50.72;102122.91;5113613;28;20459;-59
2021/12/16 03:38:54;;;;;;;3.57;2.30;;;;;;;18.48;50.88;102123.25;5131479;27;20414;-59
2021/12/16 03:41:19;;;;;;;3.93;2.30;;;;;;;18.51;50.56;102116.88;5133156;27;20499;-59
2021/12/16 03:43:46;;;;;;;3.30;2.10;;;;;;;18.45;50.97;102123.91;5133738;27;20422;-59
2021/12/16 03:46:27;;;;;;;2.77;1.87;;;;;;;18.51;50.55;102134.84;5109274;27;20546;-58
2021/12/16 03:48:58;;;;;;;2.70;1.90;;;;;;;18.54;50.87;102139.06;5112228;28;20400;-58
2021/12/16 03:52:06;;;;;;;2.93;1.87;;;;;;;18.52;50.80;102138.56;5102168;28;20428;-58
2021/12/16 03:54:38;;;;;;;4.20;2.43;;;;;;;18.48;50.75;102132.69;5091610;28;20421;-59
2021/12/16 03:57:06;;;;;;;4.47;2.10;;;;;;;18.49;50.82;102134.34;5092797;28;20981;-59
2021/12/16 03:59:32;;;;;;;3.90;1.80;;;;;;;18.52;50.99;102133.66;5094815;28;20442;-59
2021/12/16 04:01:59;;;;;;;5.20;2.60;;;;;;;18.51;50.67;102140.56;5106088;28;20833;-59
2021/12/16 04:04:25;;;;;;;3.40;1.90;;;;;;;18.51;50.68;102137.72;5108428;28;20419;-59
2021/12/16 04:06:50;;;;;;;5.50;2.30;;;;;;;18.48;51.18;102144.13;5097600;28;20427;-59
2021/12/16 04:09:17;;;;;;;4.90;1.67;;;;;;;18.52;50.79;102132.84;5094445;27;20194;-59
2021/12/16 04:11:50;;;;;;;4.70;2.10;;;;;;;18.46;51.32;102142.78;5103392;27;20605;-59
2021/12/16 04:14:16;;;;;;;3.67;2.10;;;;;;;18.47;51.19;102145.28;5112036;28;20803;-58
2021/12/16 04:16:49;;;;;;;4.67;2.20;;;;;;;18.50;50.97;102150.34;5109104;28;20492;-59
2021/12/16 04:19:17;;;;;;;4.67;2.70;;;;;;;18.47;51.25;102142.41;5096693;28;20175;-59
2021/12/16 04:21:46;;;;;;;3.87;1.80;;;;;;;18.49;51.33;102150.66;5103278;28;21005;-58
2021/12/16 04:24:11;;;;;;;3.30;2.00;;;;;;;18.52;50.89;102150.00;5089517;28;20408;-59
2021/12/16 04:26:37;;;;;;;3.33;2.00;;;;;;;18.54;50.65;102150.50;5097835;28;20431;-59
2021/12/16 04:29:04;;;;;;;2.93;2.00;;;;;;;18.48;51.25;102149.84;5091308;28;20179;-59
2021/12/16 04:31:30;;;;;;;2.67;1.60;;;;;;;18.52;51.06;102153.69;5091886;28;20253;-59
2021/12/16 04:33:55;;;;;;;2.90;1.70;;;;;;;18.48;51.29;102144.13;5094139;28;20581;-59
2021/12/16 04:36:21;;;;;;;2.93;1.73;;;;;;;18.50;51.38;102138.03;5103505;28;20200;-59
2021/12/16 04:38:47;;;;;;;3.50;2.03;;;;;;;18.49;50.99;102151.50;5129650;27;20172;-58
2021/12/16 04:41:13;;;;;;;3.23;2.00;;;;;;;18.47;51.11;102156.72;5114219;27;20784;-59
2021/12/16 04:43:40;;;;;;;2.80;2.00;;;;;;;18.47;51.40;102162.44;5119913;27;20238;-59
2021/12/16 04:46:11;;;;;;;4.30;2.13;;;;;;;18.45;51.14;102159.06;5104603;27;20423;-59
2021/12/16 04:48:38;;;;;;;3.10;1.63;;;;;;;18.48;50.73;102152.69;5109252;27;20947;-59
2021/12/16 04:51:03;;;;;;;3.00;1.83;;;;;;;18.46;51.36;102140.72;5102734;28;20500;-59
2021/12/16 04:53:29;;;;;;;4.00;2.30;;;;;;;18.47;51.06;102153.84;5107025;28;20439;-59
2021/12/16 04:55:54;;;;;;;2.70;1.80;;;;;;;18.51;50.78;102157.72;5119004;27;20624;-58
2021/12/16 04:58:20;;;;;;;3.80;2.23;;;;;;;18.51;50.76;102154.88;5127522;27;20161;-59
2021/12/16 05:00:45;;;;;;;3.53;2.23;;;;;;;18.47;51.05;102148.13;5101961;27;20268;-59
2021/12/16 05:03:11;;;;;;;4.80;2.37;;;;;;;18.43;51.28;102158.59;5090477;28;20167;-59
2021/12/16 05:05:36;;;;;;;4.53;2.00;;;;;;;18.42;51.50;102154.00;5099187;28;20186;-58
2021/12/16 05:08:02;;;;;;;3.63;1.70;;;;;;;18.44;50.92;102154.53;5111195;28;20227;-58
2021/12/16 05:10:27;;;;;;;3.17;1.87;;;;;;;18.50;50.84;102158.06;5105191;28;20553;-60
2021/12/16 05:12:56;;;;;;;3.30;2.00;;;;;;;18.49;50.83;102157.22;5109720;28;20196;-58
2021/12/16 05:15:27;;;;;;;3.73;2.00;;;;;;;18.45;51.17;102161.94;5110287;28;20703;-59
2021/12/16 05:17:55;;;;;;;5.20;1.93;;;;;;;18.55;50.86;102166.47;5108461;28;20452;-59
2021/12/16 05:20:25;;;;;;;3.80;2.17;;;;;;;18.48;51.22;102164.13;5110406;28;20471;-59
2021/12/16 05:28:14;;;;;;;3.03;1.90;;;;;;;18.48;51.41;102177.59;5100223;28;20444;-59
2021/12/16 05:30:40;;;;;;;3.30;1.67;;;;;;;18.47;51.06;102185.31;5106220;28;20966;-58
2021/12/16 05:33:06;;;;;;;2.83;1.73;;;;;;;18.51;51.41;102191.22;5110543;28;20427;-59
2021/12/16 05:35:31;;;;;;;3.93;2.07;;;;;;;18.47;50.98;102193.88;5100146;28;20193;-59
2021/12/16 05:37:57;;;;;;;3.63;1.83;;;;;;;18.48;51.02;102207.03;5121022;28;20181;-59
2021/12/16 05:40:24;;;;;;;3.20;1.87;;;;;;;18.51;51.21;102212.06;5112014;28;20213;-59
2021/12/16 05:42:59;;;;;;;3.30;1.80;;;;;;;18.52;50.94;102195.75;5109164;28;20169;-60
2021/12/16 05:45:25;;;;;;;3.23;1.80;;;;;;;18.56;50.76;102211.91;5107855;28;20437;-59
2021/12/16 05:47:52;;;;;;;3.27;2.03;;;;;;;18.54;51.19;102216.28;5096348;28;20773;-59
2021/12/16 05:50:18;;;;;;;3.70;2.40;;;;;;;18.52;50.89;102202.31;5090168;28;20239;-59
2021/12/16 05:52:43;;;;;;;3.40;1.90;;;;;;;18.55;50.97;102197.94;5072787;28;20415;-59
2021/12/16 05:55:09;;;;;;;3.23;2.17;;;;;;;18.49;51.09;102208.72;5101693;28;20806;-59
2021/12/16 05:57:34;;;;;;;3.73;1.83;;;;;;;18.49;50.84;102208.72;5114907;28;20227;-59
2021/12/16 06:00:00;;;;;;;3.60;1.50;;;;;;;18.52;50.81;102205.16;5113922;28;20188;-58
2021/12/16 06:02:25;;;;;;;3.33;1.60;;;;;;;18.51;51.07;102211.25;5106954;28;20217;-59
2021/12/16 06:04:51;;;;;;;2.93;1.70;;;;;;;18.55;51.07;102212.25;5099582;27;20212;-59
2021/12/16 06:07:20;;;;;;;4.30;1.80;;;;;;;18.53;51.20;102198.28;5107308;27;20198;-59
2021/12/16 06:09:46;;;;;;;3.30;1.30;;;;;;;18.53;50.80;102206.03;5098742;28;20198;-59
2021/12/16 06:12:11;;;;;;;2.13;1.40;;;;;;;18.48;51.22;102212.75;5093468;28;20412;-59
2021/12/16 06:26:25;;;;;;;3.60;2.00;;;;;;;18.48;51.30;102218.47;5096593;28;20536;-59
2021/12/16 06:28:23;;;;;;;3.77;1.77;;;;;;;18.45;51.33;102213.41;5093982;28;20860;-58
2021/12/16 06:30:48;;;;;;;3.00;1.83;;;;;;;18.48;51.13;102232.78;5096739;28;20411;-59
2021/12/16 06:33:15;;;;;;;2.73;1.60;;;;;;;18.51;51.18;102222.69;5087243;28;20204;-59
2021/12/16 06:35:41;;;;;;;4.43;2.00;;;;;;;18.54;50.93;102225.72;5114015;28;20182;-59
2021/12/16 06:38:06;;;;;;;3.87;1.90;;;;;;;18.51;51.18;102229.22;5126644;27;20467;-59
2021/12/16 06:40:32;;;;;;;3.03;1.83;;;;;;;18.49;51.29;102227.88;5107163;28;20217;-59
2021/12/16 06:42:59;;;;;;;2.40;1.50;;;;;;;18.50;51.10;102229.56;5098249;28;20273;-58
2021/12/16 06:45:29;;;;;;;3.20;1.70;;;;;;;18.48;51.61;102238.50;5093538;28;20174;-59
2021/12/16 06:48:00;;;;;;;3.33;1.80;;;;;;;18.56;50.85;102243.38;5128090;27;20906;-59
2021/12/16 06:50:37;;;;;;;3.60;1.63;;;;;;;18.53;50.92;102246.91;5134126;27;20410;-59
2021/12/16 06:53:05;;;;;;;4.77;1.83;;;;;;;18.50;51.07;102239.00;5130689;27;20402;-58
2021/12/16 06:58:06;;;;;;;2.57;1.43;;;;;;;18.47;51.20;102236.78;5113645;28;20404;-58
2021/12/16 07:00:40;;;;;;;3.90;2.10;;;;;;;18.49;51.58;102245.03;5114055;28;20193;-59
2021/12/16 07:03:16;;;;;;;3.17;1.90;;;;;;;18.50;50.98;102244.72;5107329;28;20443;-59
2021/12/16 07:05:42;;;;;;;3.70;2.40;;;;;;;18.54;51.08;102242.03;5097438;28;20424;-59
2021/12/16 07:08:10;;;;;;;3.30;1.97;;;;;;;18.55;50.96;102247.41;5092723;28;20415;-59
2021/12/16 07:10:36;;;;;;;4.63;2.10;;;;;;;18.50;51.10;102241.00;5093417;28;20194;-59
2021/12/16 07:13:06;;;;;;;3.20;1.97;;;;;;;18.49;50.94;102243.03;5099443;28;20959;-58
2021/12/16 07:15:32;;;;;;;3.17;1.80;;;;;;;18.52;50.98;102242.34;5113814;28;20219;-58
2021/12/16 07:17:57;;;;;;;3.10;1.87;;;;;;;18.51;51.03;102239.84;5107952;28;20440;-59
2021/12/16 07:20:26;;;;;;;2.30;1.50;;;;;;;18.51;51.25;102239.84;5097445;28;20202;-59
2021/12/16 07:22:51;;;;;;;2.83;1.67;;;;;;;18.53;51.03;102244.06;5092146;28;20189;-58
2021/12/16 07:25:17;;;;;;;2.77;1.80;;;;;;;18.51;51.13;102248.44;5075253;28;20413;-59
2021/12/16 07:27:43;;;;;;;2.83;1.83;;;;;;;18.49;51.18;102243.03;5095391;28;20182;-59
2021/12/16 07:30:11;;;;;;;2.63;1.60;;;;;;;18.49;51.34;102243.03;5093689;28;20177;-59
2021/12/16 07:32:36;;;;;;;3.23;1.80;;;;;;;18.53;51.49;102255.50;5112482;28;20404;-59
2021/12/16 07:35:07;;;;;;;2.83;1.63;;;;;;;18.53;50.92;102255.50;5111648;28;20446;-58
2021/12/16 07:37:32;;;;;;;3.00;1.90;;;;;;;18.54;51.11;102251.47;5106273;27;20208;-59
2021/12/16 07:40:00;;;;;;;2.87;1.93;;;;;;;18.59;50.90;102251.31;5113172;28;20415;-59
2021/12/16 07:42:30;;;;;;;3.20;1.80;;;;;;;18.56;50.84;102263.41;5112914;28;20197;-60
2021/12/16 07:44:55;;;;;;;2.67;1.67;;;;;;;18.54;50.94;102260.03;5112763;28;20483;-59
2021/12/16 07:47:21;;;;;;;2.73;1.80;;;;;;;18.54;50.84;102260.03;5099162;28;20983;-58
2021/12/16 07:49:46;;;;;;;2.33;1.50;;;;;;;18.57;50.92;102261.41;5091901;28;20224;-59
2021/12/16 07:52:17;;;;;;;4.47;1.90;;;;;;;18.61;50.90;102266.09;5098782;28;20212;-60
2021/12/16 07:54:42;;;;;;;2.53;1.40;;;;;;;18.59;50.96;102264.75;5092072;28;20251;-58
2021/12/16 07:57:08;;;;;;;3.93;1.90;;;;;;;18.55;50.98;102264.56;5103953;27;20439;-60
2021/12/16 07:59:34;;;;;;;5.93;2.27;;;;;;;18.62;50.63;102275.53;5112126;28;20181;-59
2021/12/16 08:01:59;;;;;;;4.43;2.20;;;;;;;18.52;51.55;102275.84;5111627;28;20664;-60
2021/12/16 08:04:29;;;;;;;3.17;1.60;;;;;;;18.54;51.07;102280.06;5108842;28;20186;-58
2021/12/16 08:06:58;;;;;;;2.60;1.53;;;;;;;18.56;51.11;102282.59;5111809;28;20178;-59
2021/12/16 08:09:23;;;;;;;3.47;1.73;;;;;;;18.59;50.83;102294.22;5103884;28;20529;-59
2021/12/16 08:11:52;;;;;;;2.90;1.80;;;;;;;18.52;51.26;102293.00;5096104;28;20428;-59
2021/12/16 08:14:18;;;;;;;2.67;1.80;;;;;;;18.53;51.09;102304.13;5091388;28;20178;-58
2021/12/16 08:16:44;;;;;;;3.20;1.90;;;;;;;18.56;51.13;102312.03;5092133;28;20810;-58
2021/12/16 08:19:09;;;;;;;3.07;1.77;;;;;;;18.57;50.95;102310.03;5102455;28;20211;-58
2021/12/16 08:21:36;;;;;;;3.40;2.00;;;;;;;18.55;50.92;102316.06;5111793;28;20204;-58
2021/12/16 08:24:04;;;;;;;3.10;1.80;;;;;;;18.57;50.83;102312.88;5106168;28;20186;-59
2021/12/16 08:26:29;;;;;;;4.00;2.07;;;;;;;18.57;51.02;102325.16;5096396;28;20481;-59
2021/12/16 08:28:55;;;;;;;3.07;1.70;;;;;;;18.51;51.52;102323.63;5091057;28;20424;-59
2021/12/16 08:31:20;;;;;;;3.00;1.70;;;;;;;18.55;51.10;102316.06;5092150;28;20177;-59
2021/12/16 08:33:46;;;;;;;2.73;1.90;;;;;;;18.55;51.01;102315.22;5094073;28;20186;-59
2021/12/16 08:36:13;;;;;;;2.37;1.57;;;;;;;18.55;51.12;102326.66;5098569;28;20181;-59
2021/12/16 08:38:38;;;;;;;2.80;1.87;;;;;;;18.54;51.25;102328.69;5117092;27;20471;-59
2021/12/16 08:41:08;;;;;;;2.73;1.60;;;;;;;18.56;50.97;102329.19;5103531;28;21045;-58
2021/12/16 08:43:35;;;;;;;3.30;1.67;;;;;;;18.56;51.12;102329.19;5110941;28;20239;-58
2021/12/16 08:46:01;;;;;;;3.60;2.13;;;;;;;18.60;50.90;102329.34;5101527;28;20444;-59
2021/12/16 08:48:26;;;;;;;3.40;2.10;;;;;;;18.57;51.06;102348.03;5091486;28;20432;-59
2021/12/16 08:50:52;;;;;;;3.47;2.00;;;;;;;18.50;51.56;102338.25;5102381;27;20190;-59
2021/12/16 08:53:18;;;;;;;3.30;1.73;;;;;;;18.55;50.94;102333.22;5111210;28;20182;-59
2021/12/16 08:55:44;;;;;;;3.07;1.90;;;;;;;18.58;50.99;102324.00;5110870;28;20178;-59
2021/12/16 08:58:09;;;;;;;2.60;1.80;;;;;;;18.52;51.16;102321.63;5100924;28;20488;-58
2021/12/16 09:00:44;;;;;;;2.40;1.50;;;;;;;18.50;51.12;102324.81;5107886;28;20234;-59
2021/12/16 09:03:10;;;;;;;3.53;1.97;;;;;;;18.57;51.10;102328.00;5103263;28;20280;-59
2021/12/16 09:05:35;;;;;;;2.37;1.60;;;;;;;18.56;51.39;102328.38;5110646;28;20420;-59
2021/12/16 09:08:01;;;;;;;3.30;2.00;;;;;;;18.53;51.24;102329.88;5100644;28;20177;-59
2021/12/16 09:10:29;;;;;;;3.10;1.90;;;;;;;18.51;51.40;102348.53;5091805;28;20199;-59
2021/12/16 09:13:05;;;;;;;2.87;1.80;;;;;;;18.60;51.08;102349.38;5095264;28;20291;-58
2021/12/16 09:15:34;;;;;;;3.10;2.13;;;;;;;18.56;51.19;102343.50;5095360;28;20427;-58
2021/12/16 09:18:00;;;;;;;2.80;1.63;;;;;;;18.57;51.22;102353.75;5090091;28;20427;-59
2021/12/16 09:20:25;;;;;;;4.80;2.20;;;;;;;18.55;51.47;102338.09;5097616;28;20884;-59
2021/12/16 09:22:51;;;;;;;3.60;1.93;;;;;;;18.55;51.07;102338.94;5108461;28;20209;-58
2021/12/16 09:25:16;;;;;;;2.93;1.43;;;;;;;18.55;50.84;102344.66;5092049;28;20165;-58
2021/12/16 09:27:42;;;;;;;2.80;1.77;;;;;;;18.60;51.07;102353.09;5082536;28;20186;-59
2021/12/16 09:30:09;;;;;;;3.50;2.00;;;;;;;18.60;50.98;102353.09;5093735;28;20182;-58
2021/12/16 09:32:35;;;;;;;3.70;1.80;;;;;;;18.56;51.31;102357.78;5090458;28;20205;-59
2021/12/16 09:35:00;;;;;;;5.10;2.43;;;;;;;18.59;51.12;102354.28;5104082;28;20868;-59
2021/12/16 09:37:26;;;;;;;3.77;1.87;;;;;;;18.55;51.45;102355.25;5103148;28;20172;-60
2021/12/16 09:39:51;;;;;;;2.90;1.80;;;;;;;18.53;51.10;102347.03;5132012;28;20539;-59
2021/12/16 09:42:17;;;;;;;3.20;1.90;;;;;;;18.61;50.81;102360.50;5111325;28;20730;-59
2021/12/16 09:44:42;;;;;;;3.30;1.67;;;;;;;18.59;50.82;102357.16;5094607;28;20253;-59
2021/12/16 09:47:12;;;;;;;2.73;1.90;;;;;;;18.56;51.15;102360.66;5092459;28;20212;-58
2021/12/16 09:49:37;;;;;;;3.20;1.87;;;;;;;18.60;51.10;102357.97;5106983;28;20691;-58
2021/12/16 09:52:04;;;;;;;3.63;2.20;;;;;;;18.60;51.15;102347.38;5110325;28;20415;-58
2021/12/16 09:54:31;;;;;;;2.50;1.60;;;;;;;18.62;51.19;102365.03;5107667;28;20192;-59
2021/12/16 09:56:56;;;;;;;3.20;1.90;;;;;;;18.59;51.29;102370.59;5129867;28;21002;-59
2021/12/16 09:59:23;;;;;;;2.93;1.87;;;;;;;18.60;51.26;102369.41;5109838;28;20448;-59
2021/12/16 10:01:50;;;;;;;3.63;2.20;;;;;;;18.55;51.00;102379.00;5089910;28;20748;-59
2021/12/16 10:04:19;;;;;;;2.70;1.80;;;;;;;18.57;51.11;102362.34;5100338;28;20435;-59
2021/12/16 10:06:46;;;;;;;2.73;1.87;;;;;;;18.56;51.26;102369.25;5110741;28;20454;-59
2021/12/16 10:09:11;;;;;;;2.73;1.83;;;;;;;18.52;51.06;102362.47;5088912;28;20522;-59
2021/12/16 10:11:38;;;;;;;4.57;2.13;;;;;;;18.54;51.10;102365.88;5110474;28;20404;-59
2021/12/16 10:19:31;;;;;;;3.20;1.83;;;;;;;18.58;50.96;102361.19;5089136;28;20431;-58
2021/12/16 10:22:18;;;;;;;3.70;1.80;;;;;;;18.61;51.16;102365.41;5095419;28;20517;-58
2021/12/16 10:24:43;;;;;;;3.03;1.77;;;;;;;18.59;51.32;102370.59;5089814;28;20960;-59
2021/12/16 10:27:22;;;;;;;2.90;1.73;;;;;;;18.59;50.94;102370.59;5096993;28;20458;-59
2021/12/16 10:29:47;;;;;;;3.47;2.17;;;;;;;18.56;51.15;102371.28;5089943;28;20194;-58
2021/12/16 10:32:40;;;;;;;3.70;1.93;;;;;;;18.55;51.27;102367.56;5094890;28;20439;-58
2021/12/16 10:35:28;;;;;;;3.60;1.70;;;;;;;18.55;51.21;102366.69;5098797;28;20216;-59
2021/12/16 10:37:57;;;;;;;3.20;1.90;;;;;;;18.55;51.15;102370.41;5099610;28;20453;-58
2021/12/16 10:40:40;;;;;;;2.60;1.70;;;;;;;18.57;51.02;102365.19;5105015;28;20424;-58
2021/12/16 10:43:30;;;;;;;2.80;1.60;;;;;;;18.58;51.28;102364.03;5116268;27;20770;-59
2021/12/16 10:46:08;;;;;;;3.50;1.67;;;;;;;18.64;50.96;102359.00;5114623;28;20811;-59
2021/12/16 10:48:58;;;;;;;2.80;1.60;;;;;;;18.57;51.08;102358.66;5109849;28;20435;-58
2021/12/16 10:51:29;;;;;;;3.40;1.93;;;;;;;18.60;51.42;102358.81;5103978;28;20428;-59
2021/12/16 10:54:17;;;;;;;3.17;1.73;;;;;;;18.62;50.97;102362.19;5110086;28;21121;-59
2021/12/16 10:56:53;;;;;;;2.63;1.70;;;;;;;18.58;51.22;102361.19;5092720;28;20511;-58
2021/12/16 10:59:25;;;;;;;3.57;1.83;;;;;;;18.61;51.36;102359.69;5095766;28;20447;-59
2021/12/16 11:02:16;;;;;;;3.00;1.77;;;;;;;18.57;51.02;102365.19;5100391;27;20472;-60
2021/12/16 11:05:00;;;;;;;6.10;1.80;;;;;;;18.64;50.81;102359.84;5095048;28;20447;-58
2021/12/16 11:07:35;;;;;;;3.07;1.67;;;;;;;18.59;51.28;102357.16;5107885;28;20458;-58
2021/12/16 11:10:09;;;;;;;3.00;1.90;;;;;;;18.56;51.23;102357.78;5098920;28;20448;-59
2021/12/16 11:12:36;;;;;;;4.00;1.93;;;;;;;18.59;51.09;102357.16;5110380;27;20455;-59
2021/12/16 11:15:04;;;;;;;3.60;1.97;;;;;;;18.58;50.99;102358.31;5092179;28;20576;-59
2021/12/16 11:17:49;;;;;;;2.83;1.70;;;;;;;18.60;51.08;102349.38;5095509;28;20476;-59
2021/12/16 11:20:43;;;;;;;3.73;1.73;;;;;;;18.61;51.07;102363.38;5092002;28;20413;-59
2021/12/16 11:23:09;;;;;;;3.87;1.90;;;;;;;18.62;51.15;102352.78;5090135;28;20451;-58
2021/12/16 11:25:42;;;;;;;3.63;2.30;;;;;;;18.62;51.17;102365.03;5109310;28;20445;-59
2021/12/16 11:28:24;;;;;;;6.93;2.00;;;;;;;18.60;51.31;102367.41;5112727;28;20480;-59
2021/12/16 11:30:59;;;;;;;3.23;1.80;;;;;;;18.63;51.36;102365.91;5113455;28;20414;-58
2021/12/16 11:33:52;;;;;;;3.40;1.70;;;;;;;18.63;51.78;102357.31;5102616;28;20438;-59
2021/12/16 11:36:29;;;;;;;3.33;2.17;;;;;;;18.61;51.39;102360.50;5113082;28;20415;-59
2021/12/16 11:38:59;;;;;;;3.07;1.90;;;;;;;18.60;51.20;102350.25;5132387;27;20421;-59
2021/12/16 11:41:40;;;;;;;3.43;2.13;;;;;;;18.56;51.24;102354.94;5122117;27;20516;-59
2021/12/16 11:44:09;;;;;;;3.70;1.60;;;;;;;18.61;51.07;102362.53;5097585;28;20420;-59
2021/12/16 11:46:38;;;;;;;2.77;1.70;;;;;;;18.66;50.92;102359.53;5094073;28;20436;-59
2021/12/16 11:49:08;;;;;;;2.80;1.80;;;;;;;18.55;51.25;102356.13;5103930;28;20962;-59
2021/12/16 11:52:02;;;;;;;3.47;2.10;;;;;;;18.62;51.63;102358.50;5110906;28;20652;-58
2021/12/16 11:54:30;;;;;;;2.90;1.70;;;;;;;18.65;50.92;102364.41;5107103;28;20431;-59
2021/12/16 11:56:58;;;;;;;2.73;1.53;;;;;;;18.65;51.06;102361.53;5102413;28;20447;-58
2021/12/16 11:59:34;;;;;;;2.90;1.90;;;;;;;18.58;51.21;102349.75;5112911;28;20481;-59
2021/12/16 12:01:59;;;;;;;2.63;1.50;;;;;;;18.65;51.20;102357.81;5106697;28;20537;-59
2021/12/16 12:04:29;;;;;;;3.27;1.77;;;;;;;18.61;51.20;102354.78;5097534;28;20420;-59
2021/12/16 12:06:54;;;;;;;2.97;1.70;;;;;;;18.57;51.59;102350.91;5091825;28;20185;-59
2021/12/16 12:09:21;;;;;;;3.20;1.80;;;;;;;18.61;51.89;102342.50;5106948;28;20451;-59
2021/12/16 12:11:48;;;;;;;3.00;1.73;;;;;;;18.62;50.99;102345.03;5076451;28;20180;-59
2021/12/16 12:14:17;;;;;;;3.47;2.00;;;;;;;18.67;51.22;102349.75;5103316;28;20527;-58
2021/12/16 12:16:44;;;;;;;3.90;1.83;;;;;;;18.67;51.11;102346.91;5091060;28;20425;-59
2021/12/16 12:19:16;;;;;;;2.50;1.63;;;;;;;18.63;51.00;102346.72;5089291;28;20417;-59
2021/12/16 12:21:50;;;;;;;2.80;1.73;;;;;;;18.64;51.20;102345.53;5092345;28;20452;-59
2021/12/16 12:24:24;;;;;;;2.63;1.63;;;;;;;18.65;51.01;102337.78;5094224;28;20978;-58
2021/12/16 12:26:54;;;;;;;3.13;1.80;;;;;;;18.59;51.04;102339.97;5108408;28;20484;-59
2021/12/16 12:29:28;;;;;;;3.10;1.93;;;;;;;18.67;50.67;102330.56;5107923;28;20553;-59
2021/12/16 12:32:05;;;;;;;3.50;1.87;;;;;;;18.68;50.89;102340.00;5106067;27;20425;-58
2021/12/16 12:34:35;;;;;;;4.23;2.17;;;;;;;18.62;51.24;102342.16;5096824;27;20432;-58
2021/12/16 12:37:15;;;;;;;3.00;1.97;;;;;;;18.64;51.18;102331.25;5086572;27;20441;-59
2021/12/16 12:39:45;;;;;;;3.17;1.70;;;;;;;18.69;50.98;102333.94;5114565;27;20518;-58
2021/12/16 12:42:11;;;;;;;2.50;1.77;;;;;;;18.65;51.08;102327.19;5093229;28;20526;-58
2021/12/16 12:44:36;;;;;;;2.90;1.90;;;;;;;18.63;50.98;102323.00;5114964;27;20420;-59
2021/12/16 12:47:05;;;;;;;2.67;1.67;;;;;;;18.63;51.06;102318.13;5101556;28;20455;-59
2021/12/16 12:49:30;;;;;;;2.90;2.00;;;;;;;18.67;50.98;102321.97;5100701;28;20189;-59
2021/12/16 12:52:10;;;;;;;2.60;1.70;;;;;;;18.62;51.39;102312.72;5111027;28;20824;-59
2021/12/16 12:54:36;;;;;;;2.97;1.80;;;;;;;18.66;51.20;102319.47;5101121;28;20651;-59
2021/12/16 12:57:21;;;;;;;2.80;1.80;;;;;;;18.65;51.36;102310.03;5094275;28;20436;-58
2021/12/16 12:59:46;;;;;;;2.50;1.60;;;;;;;18.65;51.38;102310.03;5092963;28;20455;-59
2021/12/16 13:02:24;;;;;;;2.97;1.63;;;;;;;18.69;51.27;102302.47;5095741;28;20479;-58
2021/12/16 13:04:55;;;;;;;3.63;1.80;;;;;;;18.68;51.16;102300.78;5092962;28;20170;-59
2021/12/16 13:07:43;;;;;;;3.90;1.80;;;;;;;18.66;51.20;102305.16;5099413;28;20516;-58
2021/12/16 13:10:11;;;;;;;2.83;1.83;;;;;;;18.64;51.12;102305.50;5110314;28;20435;-59
2021/12/16 13:12:56;;;;;;;2.57;1.67;;;;;;;18.64;51.17;102305.50;5107846;28;20465;-59
2021/12/16 13:15:28;;;;;;;3.23;1.80;;;;;;;18.66;51.30;102303.13;5076487;28;20439;-58
2021/12/16 13:24:04;;;;;;;3.07;1.63;;;;;;;18.68;51.09;102302.81;5067500;28;20431;-59
2021/12/16 13:26:41;;;;;;;3.47;2.03;;;;;;;18.68;51.08;102309.38;5090692;28;20436;-59
2021/12/16 13:29:35;;;;;;;2.50;1.40;;;;;;;18.70;51.13;102300.44;5103022;28;21269;-59
2021/12/16 13:32:15;;;;;;;4.17;1.90;;;;;;;18.69;51.31;102304.47;5110308;28;20447;-59
2021/12/16 13:34:54;;;;;;;3.23;1.87;;;;;;;18.65;51.83;102306.31;5098295;28;20461;-58
2021/12/16 13:37:29;;;;;;;2.20;1.50;;;;;;;18.66;51.44;102308.03;5101780;28;20434;-59
2021/12/16 13:39:58;;;;;;;3.47;1.90;;;;;;;18.65;51.14;102304.31;5131850;28;20885;-58
2021/12/16 13:42:24;;;;;;;3.30;1.93;;;;;;;18.67;51.39;102301.94;5116293;28;20550;-59
2021/12/16 13:45:02;;;;;;;2.97;1.97;;;;;;;18.61;51.21;102309.00;5098415;28;20458;-59
2021/12/16 13:47:46;;;;;;;3.90;2.23;;;;;;;18.64;51.15;102316.09;5109515;28;20207;-59
2021/12/16 14:10:10;;;;;;;3.20;1.90;;;;;;;18.69;51.17;102322.50;5096852;28;20480;-58
2021/12/16 14:17:56;;;;;;;3.10;1.80;;;;;;;18.67;51.03;102324.84;5114193;28;20507;-59
2021/12/16 14:23:35;;;;;;;2.70;1.80;;;;;;;18.72;51.07;102327.53;5093420;28;20396;-59
2021/12/16 14:35:21;;;;;;;3.47;1.63;;;;;;;18.70;51.29;102324.19;5109737;28;20439;-58
2021/12/16 14:38:05;;;;;;;2.53;1.57;;;;;;;18.73;51.05;102334.97;5107016;27;20501;-58
2021/12/16 14:40:35;;;;;;;2.40;1.67;;;;;;;18.74;51.07;102333.78;5124925;27;20427;-58
2021/12/16 14:43:14;;;;;;;3.20;1.83;;;;;;;18.72;51.16;102329.56;5106303;28;20914;-58
2021/12/16 14:45:52;;;;;;;3.10;1.90;;;;;;;18.70;51.19;102329.06;5113659;28;20458;-58
2021/12/16 14:48:26;;;;;;;2.50;1.60;;;;;;;18.70;51.06;102329.06;5103074;28;20442;-58
2021/12/16 14:51:03;;;;;;;3.00;1.97;;;;;;;18.71;51.34;102325.88;5088997;28;20411;-58